WAT3072 MMLO-KDFW
Flight info
| Callsign | WAT3072 |
|---|---|
| Flight time | N/A |
| Altitude | 37000 |
| Route | HORTA1C HORTA J25 SLP UJ45 MTY UJ11E RIKAN/N0437F380 UJ11E NLD/N0436F390 DCT SAT/N0433F380 J23 SPURS/N0434F390 DCT GUTZZ SOCKK4 |
| Aircraft | CRJX/M-SDFGIRWY/S |
Departure
| Time | 2026-05-06 14:52 |
|---|---|
| Airport | Guanajuato International Airport (MMLO) |
Arrival
| Time | N/A |
|---|---|
| Airport | Dallas Fort Worth International Airport (KDFW) |
| Time | Latitude | Longitude | Altitude | Speed | Heading |
|---|---|---|---|---|---|
| 2026-05-06 14:30 | 20.98672 | -101.47825 | 5910 ft | 0 kts | 239° |
| 2026-05-06 14:44 | 20.98677 | -101.47816 | 5910 ft | 4 kts | 233° |
| 2026-05-06 14:44 | 20.98696 | -101.47801 | 5910 ft | 4 kts | 189° |
| 2026-05-06 14:45 | 20.98717 | -101.47812 | 5910 ft | 0 kts | 135° |
| 2026-05-06 14:47 | 20.98714 | -101.47809 | 5910 ft | 2 kts | 136° |
| 2026-05-06 14:47 | 20.98695 | -101.47789 | 5910 ft | 6 kts | 136° |
| 2026-05-06 14:47 | 20.98665 | -101.47757 | 5909 ft | 7 kts | 134° |
| 2026-05-06 14:48 | 20.98655 | -101.47712 | 5909 ft | 6 kts | 65° |
| 2026-05-06 14:48 | 20.98680 | -101.47680 | 5909 ft | 6 kts | 47° |
| 2026-05-06 14:48 | 20.98711 | -101.47646 | 5909 ft | 7 kts | 45° |
| 2026-05-06 14:48 | 20.98747 | -101.47608 | 5909 ft | 8 kts | 43° |
| 2026-05-06 14:49 | 20.98786 | -101.47568 | 5910 ft | 8 kts | 44° |
| 2026-05-06 14:49 | 20.98798 | -101.47521 | 5910 ft | 7 kts | 120° |
| 2026-05-06 14:49 | 20.98757 | -101.47472 | 5909 ft | 11 kts | 134° |
| 2026-05-06 14:49 | 20.98691 | -101.47400 | 5907 ft | 16 kts | 134° |
| 2026-05-06 14:50 | 20.98600 | -101.47300 | 5904 ft | 21 kts | 134° |
| 2026-05-06 14:50 | 20.98490 | -101.47180 | 5901 ft | 23 kts | 135° |
| 2026-05-06 14:50 | 20.98375 | -101.47056 | 5896 ft | 24 kts | 134° |
| 2026-05-06 14:50 | 20.98260 | -101.46972 | 5894 ft | 16 kts | 173° |
| 2026-05-06 14:51 | 20.98220 | -101.46921 | 5893 ft | 7 kts | 51° |
| 2026-05-06 14:51 | 20.98253 | -101.46922 | 5893 ft | 7 kts | 324° |
| 2026-05-06 14:51 | 20.98264 | -101.46935 | 5894 ft | 0 kts | 310° |
| 2026-05-06 14:51 | 20.98369 | -101.47056 | 5896 ft | 54 kts | 314° |
| 2026-05-06 14:52 | 20.98785 | -101.47506 | 5910 ft | 114 kts | 315° |
| 2026-05-06 14:52 | 20.99466 | -101.48248 | 5927 ft | 163 kts | 314° |
| 2026-05-06 14:52 | 21.00346 | -101.49193 | 6136 ft | 188 kts | 315° |
| 2026-05-06 14:52 | 21.01273 | -101.50156 | 7066 ft | 184 kts | 317° |
| 2026-05-06 14:53 | 21.02209 | -101.51140 | 7645 ft | 199 kts | 315° |
| 2026-05-06 14:53 | 21.03389 | -101.52058 | 7915 ft | 224 kts | 338° |
| 2026-05-06 14:53 | 21.05020 | -101.52141 | 8057 ft | 254 kts | 18° |
| 2026-05-06 14:53 | 21.06732 | -101.51459 | 8454 ft | 271 kts | 17° |
| 2026-05-06 14:54 | 21.08611 | -101.50984 | 9053 ft | 285 kts | 5° |
| 2026-05-06 14:54 | 21.10630 | -101.50907 | 9468 ft | 297 kts | 356° |
| 2026-05-06 14:54 | 21.12719 | -101.51000 | 10175 ft | 308 kts | 355° |
| 2026-05-06 14:54 | 21.14926 | -101.51139 | 10601 ft | 327 kts | 355° |
| 2026-05-06 14:55 | 21.17256 | -101.51282 | 11048 ft | 344 kts | 356° |
| 2026-05-06 14:55 | 21.19700 | -101.51406 | 11551 ft | 358 kts | 357° |
| 2026-05-06 14:55 | 21.22215 | -101.51484 | 12235 ft | 366 kts | 358° |
| 2026-05-06 14:55 | 21.24777 | -101.51565 | 12944 ft | 371 kts | 358° |
| 2026-05-06 14:56 | 21.27374 | -101.51648 | 13643 ft | 376 kts | 359° |
| 2026-05-06 14:56 | 21.30005 | -101.51730 | 14279 ft | 381 kts | 359° |
| 2026-05-06 14:56 | 21.32632 | -101.51809 | 14910 ft | 384 kts | 359° |
| 2026-05-06 14:56 | 21.35317 | -101.51893 | 15520 ft | 387 kts | 359° |
| 2026-05-06 14:57 | 21.38015 | -101.51978 | 16119 ft | 389 kts | 358° |
| 2026-05-06 14:57 | 21.40733 | -101.52067 | 16718 ft | 393 kts | 358° |
| 2026-05-06 14:57 | 21.43478 | -101.52158 | 17289 ft | 396 kts | 358° |
| 2026-05-06 14:57 | 21.46241 | -101.52249 | 17893 ft | 399 kts | 358° |
| 2026-05-06 14:58 | 21.49025 | -101.52339 | 18464 ft | 402 kts | 358° |
| 2026-05-06 14:58 | 21.51832 | -101.52431 | 18916 ft | 406 kts | 358° |
| 2026-05-06 14:58 | 21.54669 | -101.52522 | 19368 ft | 410 kts | 357° |
| 2026-05-06 14:58 | 21.57538 | -101.52615 | 19805 ft | 415 kts | 357° |
| 2026-05-06 14:59 | 21.60436 | -101.52691 | 20224 ft | 419 kts | 359° |
| 2026-05-06 14:59 | 21.63366 | -101.52647 | 20641 ft | 423 kts | 1° |
| 2026-05-06 14:59 | 21.66328 | -101.52516 | 21057 ft | 427 kts | 1° |
| 2026-05-06 14:59 | 21.69314 | -101.52372 | 21460 ft | 431 kts | 1° |
| 2026-05-06 15:00 | 21.72328 | -101.52239 | 21849 ft | 435 kts | 0° |
| 2026-05-06 15:00 | 21.75377 | -101.52140 | 22197 ft | 440 kts | 0° |
| 2026-05-06 15:00 | 21.78416 | -101.52043 | 22575 ft | 444 kts | 360° |
| 2026-05-06 15:00 | 21.81549 | -101.51752 | 22909 ft | 450 kts | 13° |
| 2026-05-06 15:01 | 21.84417 | -101.50415 | 23242 ft | 454 kts | 35° |
| 2026-05-06 15:01 | 21.86685 | -101.48126 | 23591 ft | 453 kts | 54° |
| 2026-05-06 15:01 | 21.88512 | -101.45358 | 23893 ft | 454 kts | 58° |
| 2026-05-06 15:01 | 21.90285 | -101.42532 | 24214 ft | 456 kts | 58° |
| 2026-05-06 15:02 | 21.92135 | -101.39742 | 24508 ft | 460 kts | 55° |
| 2026-05-06 15:02 | 21.94095 | -101.37016 | 24830 ft | 462 kts | 53° |
| 2026-05-06 15:02 | 21.96098 | -101.34285 | 24950 ft | 469 kts | 53° |
| 2026-05-06 15:02 | 21.98114 | -101.31483 | 24962 ft | 478 kts | 54° |
| 2026-05-06 15:03 | 22.00165 | -101.28606 | 24957 ft | 487 kts | 54° |
| 2026-05-06 15:03 | 22.02256 | -101.25707 | 25164 ft | 490 kts | 53° |
| 2026-05-06 15:03 | 22.04340 | -101.22807 | 25527 ft | 489 kts | 54° |
| 2026-05-06 15:03 | 22.06417 | -101.19900 | 25907 ft | 488 kts | 53° |
| 2026-05-06 15:04 | 22.08493 | -101.16994 | 26230 ft | 489 kts | 53° |
| 2026-05-06 15:04 | 22.10575 | -101.14084 | 26556 ft | 489 kts | 53° |
| 2026-05-06 15:04 | 22.12652 | -101.11182 | 26941 ft | 488 kts | 53° |
| 2026-05-06 15:04 | 22.14721 | -101.08283 | 27299 ft | 487 kts | 53° |
| 2026-05-06 15:05 | 22.16787 | -101.05387 | 27639 ft | 487 kts | 53° |
| 2026-05-06 15:05 | 22.18848 | -101.02498 | 27992 ft | 486 kts | 53° |
| 2026-05-06 15:05 | 22.20910 | -100.99606 | 28328 ft | 485 kts | 53° |
| 2026-05-06 15:05 | 22.22995 | -100.96755 | 28632 ft | 484 kts | 48° |
| 2026-05-06 15:06 | 22.25544 | -100.94402 | 28885 ft | 483 kts | 31° |
| 2026-05-06 15:06 | 22.28532 | -100.92773 | 29195 ft | 480 kts | 21° |
| 2026-05-06 15:06 | 22.31658 | -100.91534 | 29506 ft | 477 kts | 14° |
| 2026-05-06 15:06 | 22.34874 | -100.90714 | 29812 ft | 474 kts | 8° |
| 2026-05-06 15:07 | 22.38075 | -100.90106 | 30091 ft | 473 kts | 7° |
| 2026-05-06 15:07 | 22.41311 | -100.89487 | 30358 ft | 472 kts | 8° |
| 2026-05-06 15:07 | 22.44529 | -100.88789 | 30540 ft | 472 kts | 9° |
| 2026-05-06 15:07 | 22.47739 | -100.88031 | 30748 ft | 471 kts | 9° |
| 2026-05-06 15:08 | 22.50949 | -100.87289 | 30839 ft | 471 kts | 9° |
| 2026-05-06 15:08 | 22.57405 | -100.85816 | 30971 ft | 478 kts | 9° |
| 2026-05-06 15:09 | 22.63974 | -100.84314 | 31010 ft | 486 kts | 9° |
| 2026-05-06 15:09 | 22.70651 | -100.82761 | 31021 ft | 495 kts | 9° |
| 2026-05-06 15:10 | 22.77441 | -100.81205 | 31033 ft | 503 kts | 9° |
| 2026-05-06 15:10 | 22.84339 | -100.79616 | 31027 ft | 510 kts | 9° |
| 2026-05-06 15:11 | 22.91323 | -100.78003 | 31019 ft | 516 kts | 9° |
| 2026-05-06 15:11 | 22.98378 | -100.76374 | 31019 ft | 520 kts | 9° |
| 2026-05-06 15:12 | 23.05432 | -100.74736 | 31030 ft | 524 kts | 9° |
| 2026-05-06 15:12 | 23.12580 | -100.73075 | 31014 ft | 527 kts | 9° |
| 2026-05-06 15:13 | 23.19770 | -100.71362 | 30989 ft | 529 kts | 9° |
| 2026-05-06 15:13 | 23.26971 | -100.69678 | 31046 ft | 529 kts | 10° |
| 2026-05-06 15:14 | 23.34132 | -100.68002 | 30998 ft | 524 kts | 9° |
| 2026-05-06 15:14 | 23.41233 | -100.66347 | 31001 ft | 520 kts | 9° |
| 2026-05-06 15:15 | 23.48285 | -100.64701 | 31000 ft | 517 kts | 9° |
| 2026-05-06 15:15 | 23.55302 | -100.63081 | 31002 ft | 514 kts | 9° |
| 2026-05-06 15:16 | 23.62282 | -100.61451 | 31002 ft | 512 kts | 8° |
| 2026-05-06 15:16 | 23.69249 | -100.59822 | 31005 ft | 511 kts | 9° |
| 2026-05-06 15:17 | 23.76154 | -100.58212 | 31011 ft | 510 kts | 8° |
| 2026-05-06 15:17 | 23.83098 | -100.56593 | 31000 ft | 510 kts | 8° |
| 2026-05-06 15:18 | 23.90035 | -100.54958 | 31009 ft | 509 kts | 8° |
| 2026-05-06 15:18 | 23.96961 | -100.53334 | 31007 ft | 509 kts | 8° |
| 2026-05-06 15:19 | 24.03886 | -100.51704 | 31014 ft | 509 kts | 8° |
| 2026-05-06 15:19 | 24.10811 | -100.50080 | 31010 ft | 509 kts | 8° |
| 2026-05-06 15:20 | 24.17731 | -100.48456 | 30999 ft | 508 kts | 8° |
| 2026-05-06 15:20 | 24.24647 | -100.46824 | 31005 ft | 508 kts | 8° |
| 2026-05-06 15:21 | 24.31562 | -100.45196 | 31002 ft | 508 kts | 8° |
| 2026-05-06 15:21 | 24.38434 | -100.43568 | 31002 ft | 508 kts | 8° |
| 2026-05-06 15:22 | 24.45341 | -100.41938 | 30989 ft | 508 kts | 8° |
| 2026-05-06 15:22 | 24.52247 | -100.40300 | 30999 ft | 507 kts | 8° |
| 2026-05-06 15:23 | 24.59143 | -100.38664 | 31002 ft | 507 kts | 8° |
| 2026-05-06 15:23 | 24.66044 | -100.37024 | 31025 ft | 507 kts | 8° |
| 2026-05-06 15:24 | 24.72948 | -100.35389 | 31007 ft | 508 kts | 8° |
| 2026-05-06 15:24 | 24.79860 | -100.33747 | 31004 ft | 508 kts | 8° |
| 2026-05-06 15:25 | 24.86771 | -100.32099 | 31012 ft | 508 kts | 8° |
| 2026-05-06 15:25 | 24.93691 | -100.30449 | 31026 ft | 509 kts | 8° |
| 2026-05-06 15:26 | 25.00577 | -100.28810 | 31004 ft | 509 kts | 8° |
| 2026-05-06 15:26 | 25.07507 | -100.27157 | 30984 ft | 510 kts | 8° |
| 2026-05-06 15:27 | 25.14440 | -100.25526 | 30963 ft | 509 kts | 8° |
| 2026-05-06 15:27 | 25.21360 | -100.23919 | 30961 ft | 508 kts | 8° |
| 2026-05-06 15:28 | 25.28260 | -100.22181 | 30971 ft | 508 kts | 8° |
| 2026-05-06 15:28 | 25.35179 | -100.20541 | 30977 ft | 509 kts | 7° |
| 2026-05-06 15:29 | 25.42121 | -100.18912 | 30892 ft | 510 kts | 7° |
| 2026-05-06 15:29 | 25.49053 | -100.17278 | 30915 ft | 509 kts | 8° |
| 2026-05-06 15:30 | 25.55980 | -100.15597 | 30905 ft | 510 kts | 8° |
| 2026-05-06 15:30 | 25.62867 | -100.13879 | 30912 ft | 510 kts | 8° |
| 2026-05-06 15:31 | 25.69804 | -100.12188 | 30909 ft | 510 kts | 7° |
| 2026-05-06 15:31 | 25.76719 | -100.10350 | 30900 ft | 516 kts | 16° |
| 2026-05-06 15:32 | 25.83168 | -100.06748 | 30911 ft | 522 kts | 29° |
| 2026-05-06 15:32 | 25.86218 | -100.04555 | 30912 ft | 523 kts | 30° |
| 2026-05-06 15:32 | 25.92376 | -100.00249 | 30915 ft | 522 kts | 27° |
| 2026-05-06 15:33 | 25.98629 | -99.96106 | 30889 ft | 524 kts | 28° |
| 2026-05-06 15:33 | 26.04870 | -99.91908 | 30878 ft | 525 kts | 28° |
| 2026-05-06 15:34 | 26.10074 | -99.88421 | 30855 ft | 525 kts | 27° |
| 2026-05-06 15:34 | 26.16359 | -99.84283 | 30848 ft | 525 kts | 27° |
| 2026-05-06 15:35 | 26.22583 | -99.80021 | 30854 ft | 525 kts | 28° |
| 2026-05-06 15:35 | 26.29840 | -99.75097 | 30850 ft | 526 kts | 27° |
| 2026-05-06 15:36 | 26.35087 | -99.71554 | 30846 ft | 526 kts | 27° |
| 2026-05-06 15:36 | 26.41309 | -99.67351 | 30893 ft | 527 kts | 28° |
| 2026-05-06 15:37 | 26.47586 | -99.63107 | 30861 ft | 528 kts | 27° |
| 2026-05-06 15:37 | 26.54066 | -99.59349 | 30847 ft | 519 kts | 11° |
| 2026-05-06 15:38 | 26.61097 | -99.58271 | 30863 ft | 506 kts | 355° |
| 2026-05-06 15:38 | 26.68117 | -99.58352 | 30851 ft | 505 kts | 353° |
| 2026-05-06 15:39 | 26.75174 | -99.58206 | 30858 ft | 508 kts | 355° |
| 2026-05-06 15:39 | 26.82246 | -99.57978 | 30845 ft | 508 kts | 355° |
| 2026-05-06 15:40 | 26.89316 | -99.57820 | 30850 ft | 508 kts | 354° |
| 2026-05-06 15:40 | 26.96390 | -99.57656 | 30836 ft | 509 kts | 355° |
| 2026-05-06 15:41 | 27.03462 | -99.57477 | 30830 ft | 508 kts | 355° |
| 2026-05-06 15:41 | 27.10531 | -99.57306 | 30832 ft | 508 kts | 355° |
| 2026-05-06 15:42 | 27.17608 | -99.57132 | 30849 ft | 508 kts | 354° |
| 2026-05-06 15:42 | 27.24680 | -99.56960 | 30839 ft | 508 kts | 354° |
| 2026-05-06 15:43 | 27.31712 | -99.56790 | 30836 ft | 508 kts | 354° |
| 2026-05-06 15:43 | 27.38785 | -99.56615 | 30832 ft | 508 kts | 354° |
| 2026-05-06 15:44 | 27.45841 | -99.55442 | 30853 ft | 522 kts | 11° |
| 2026-05-06 15:44 | 27.52641 | -99.52421 | 30852 ft | 529 kts | 21° |
| 2026-05-06 15:45 | 27.59303 | -99.48896 | 30853 ft | 528 kts | 19° |
| 2026-05-06 15:45 | 27.66043 | -99.45621 | 30849 ft | 528 kts | 19° |
| 2026-05-06 15:46 | 27.72773 | -99.42305 | 30839 ft | 528 kts | 19° |
| 2026-05-06 15:46 | 27.79468 | -99.39010 | 30838 ft | 528 kts | 18° |
| 2026-05-06 15:47 | 27.86249 | -99.35665 | 30824 ft | 528 kts | 19° |
| 2026-05-06 15:47 | 27.92939 | -99.32362 | 30822 ft | 528 kts | 19° |
| 2026-05-06 15:48 | 27.99678 | -99.29030 | 30825 ft | 529 kts | 18° |
| 2026-05-06 15:48 | 28.06412 | -99.25695 | 30849 ft | 529 kts | 18° |
| 2026-05-06 15:49 | 28.13159 | -99.22354 | 30827 ft | 529 kts | 18° |
| 2026-05-06 15:49 | 28.19912 | -99.19000 | 30836 ft | 530 kts | 18° |
| 2026-05-06 15:50 | 28.26670 | -99.15644 | 30844 ft | 530 kts | 18° |
| 2026-05-06 15:50 | 28.33418 | -99.12286 | 30850 ft | 530 kts | 18° |
| 2026-05-06 15:51 | 28.40175 | -99.08922 | 30851 ft | 531 kts | 18° |
| 2026-05-06 15:51 | 28.46938 | -99.05543 | 30849 ft | 531 kts | 18° |
| 2026-05-06 15:52 | 28.53699 | -99.02160 | 30843 ft | 531 kts | 18° |
| 2026-05-06 15:52 | 28.60466 | -98.98772 | 30837 ft | 531 kts | 18° |
| 2026-05-06 15:53 | 28.67187 | -98.95407 | 30850 ft | 531 kts | 18° |
| 2026-05-06 15:53 | 28.73961 | -98.92006 | 30820 ft | 532 kts | 18° |
| 2026-05-06 15:54 | 28.80742 | -98.88597 | 30818 ft | 533 kts | 18° |
| 2026-05-06 15:54 | 28.87529 | -98.85184 | 30846 ft | 533 kts | 18° |
| 2026-05-06 15:55 | 28.94321 | -98.81760 | 30858 ft | 533 kts | 18° |
| 2026-05-06 15:55 | 29.01118 | -98.78335 | 30867 ft | 534 kts | 18° |
| 2026-05-06 15:56 | 29.07916 | -98.74894 | 30866 ft | 535 kts | 18° |
| 2026-05-06 15:56 | 29.14677 | -98.71469 | 30858 ft | 535 kts | 18° |
| 2026-05-06 15:57 | 29.21485 | -98.68017 | 30849 ft | 535 kts | 18° |
| 2026-05-06 15:57 | 29.28291 | -98.64562 | 30881 ft | 535 kts | 17° |
| 2026-05-06 15:58 | 29.35107 | -98.61100 | 30871 ft | 536 kts | 18° |
| 2026-05-06 15:58 | 29.41922 | -98.57627 | 30868 ft | 536 kts | 18° |
| 2026-05-06 15:59 | 29.48737 | -98.54153 | 30865 ft | 536 kts | 18° |
| 2026-05-06 15:59 | 29.55559 | -98.50668 | 30965 ft | 536 kts | 17° |
| 2026-05-06 16:00 | 29.62500 | -98.47824 | 30930 ft | 517 kts | 359° |
| 2026-05-06 16:00 | 29.66023 | -98.47772 | 30921 ft | 496 kts | 343° |
| 2026-05-06 16:00 | 29.69360 | -98.48556 | 30918 ft | 484 kts | 335° |
| 2026-05-06 16:01 | 29.75771 | -98.50762 | 30896 ft | 482 kts | 334° |
| 2026-05-06 16:01 | 29.82343 | -98.52593 | 30863 ft | 488 kts | 338° |
| 2026-05-06 16:02 | 29.88985 | -98.54279 | 30849 ft | 489 kts | 337° |
| 2026-05-06 16:02 | 29.95615 | -98.56017 | 30849 ft | 488 kts | 337° |
| 2026-05-06 16:03 | 30.02239 | -98.57792 | 30854 ft | 489 kts | 337° |
| 2026-05-06 16:03 | 30.08867 | -98.59568 | 30855 ft | 489 kts | 337° |
| 2026-05-06 16:04 | 30.15453 | -98.61342 | 30873 ft | 489 kts | 336° |
| 2026-05-06 16:04 | 30.22136 | -98.63139 | 30867 ft | 490 kts | 336° |
| 2026-05-06 16:05 | 30.28778 | -98.64930 | 30864 ft | 490 kts | 336° |
| 2026-05-06 16:05 | 30.35372 | -98.66711 | 30877 ft | 490 kts | 336° |
| 2026-05-06 16:06 | 30.42011 | -98.68505 | 30877 ft | 490 kts | 336° |
| 2026-05-06 16:06 | 30.48653 | -98.70307 | 30920 ft | 490 kts | 336° |
| 2026-05-06 16:07 | 30.55307 | -98.72105 | 30945 ft | 490 kts | 336° |
| 2026-05-06 16:07 | 30.61954 | -98.73908 | 30961 ft | 491 kts | 336° |
| 2026-05-06 16:08 | 30.68601 | -98.75717 | 31002 ft | 491 kts | 336° |
| 2026-05-06 16:08 | 30.75251 | -98.77531 | 30987 ft | 491 kts | 336° |
| 2026-05-06 16:09 | 30.82103 | -98.78639 | 30972 ft | 518 kts | 355° |
| 2026-05-06 16:09 | 30.85692 | -98.77775 | 30984 ft | 538 kts | 11° |
| 2026-05-06 16:09 | 30.89117 | -98.75882 | 31008 ft | 553 kts | 27° |
| 2026-05-06 16:10 | 30.92153 | -98.73062 | 30999 ft | 564 kts | 42° |
| 2026-05-06 16:10 | 30.94603 | -98.69479 | 30941 ft | 570 kts | 57° |
| 2026-05-06 16:10 | 30.96340 | -98.65392 | 30980 ft | 570 kts | 68° |
| 2026-05-06 16:10 | 30.97875 | -98.61122 | 30975 ft | 571 kts | 64° |
| 2026-05-06 16:11 | 30.99934 | -98.57171 | 30943 ft | 569 kts | 49° |
| 2026-05-06 16:11 | 31.02676 | -98.53899 | 30950 ft | 561 kts | 34° |
| 2026-05-06 16:11 | 31.08851 | -98.48379 | 30952 ft | 561 kts | 35° |
| 2026-05-06 16:12 | 31.14647 | -98.42218 | 30968 ft | 564 kts | 39° |
| 2026-05-06 16:12 | 31.20380 | -98.35976 | 30958 ft | 563 kts | 38° |
| 2026-05-06 16:13 | 31.26208 | -98.29849 | 30999 ft | 563 kts | 38° |
| 2026-05-06 16:13 | 31.32020 | -98.23693 | 30967 ft | 564 kts | 38° |
| 2026-05-06 16:14 | 31.37848 | -98.17517 | 30497 ft | 565 kts | 38° |
| 2026-05-06 16:14 | 31.40723 | -98.14462 | 30133 ft | 565 kts | 38° |
| 2026-05-06 16:14 | 31.43829 | -98.11696 | 29750 ft | 552 kts | 25° |
| 2026-05-06 16:15 | 31.47247 | -98.09906 | 29297 ft | 526 kts | 9° |
| 2026-05-06 16:15 | 31.50739 | -98.09138 | 28695 ft | 497 kts | 353° |
| 2026-05-06 16:15 | 31.54074 | -98.09404 | 28029 ft | 467 kts | 337° |
| 2026-05-06 16:15 | 31.57035 | -98.10627 | 27321 ft | 437 kts | 320° |
| 2026-05-06 16:16 | 31.59421 | -98.12640 | 26627 ft | 414 kts | 308° |
| 2026-05-06 16:16 | 31.61834 | -98.14571 | 25896 ft | 433 kts | 325° |
| 2026-05-06 16:16 | 31.64779 | -98.15576 | 25263 ft | 453 kts | 343° |
| 2026-05-06 16:16 | 31.67977 | -98.15539 | 24645 ft | 470 kts | 2° |
| 2026-05-06 16:17 | 31.71112 | -98.14325 | 23938 ft | 482 kts | 22° |
| 2026-05-06 16:17 | 31.73885 | -98.12103 | 23218 ft | 482 kts | 34° |
| 2026-05-06 16:17 | 31.76536 | -98.09738 | 22436 ft | 474 kts | 30° |
| 2026-05-06 16:17 | 31.79416 | -98.08006 | 21674 ft | 456 kts | 11° |
| 2026-05-06 16:18 | 31.82459 | -98.07377 | 21005 ft | 437 kts | 356° |
| 2026-05-06 16:18 | 31.85467 | -98.07141 | 20304 ft | 431 kts | 356° |
| 2026-05-06 16:18 | 31.88413 | -98.06855 | 19648 ft | 429 kts | 358° |
| 2026-05-06 16:18 | 31.91367 | -98.06423 | 19006 ft | 426 kts | 1° |
| 2026-05-06 16:19 | 31.94284 | -98.05936 | 18388 ft | 421 kts | 1° |
| 2026-05-06 16:19 | 31.97176 | -98.05448 | 17723 ft | 417 kts | 1° |
| 2026-05-06 16:19 | 32.00036 | -98.04966 | 17048 ft | 412 kts | 2° |
| 2026-05-06 16:19 | 32.02848 | -98.04321 | 16405 ft | 412 kts | 9° |
| 2026-05-06 16:20 | 32.05565 | -98.03411 | 16128 ft | 397 kts | 7° |
| 2026-05-06 16:20 | 32.08227 | -98.03143 | 15827 ft | 376 kts | 354° |
| 2026-05-06 16:20 | 32.10806 | -98.02533 | 15285 ft | 389 kts | 19° |
| 2026-05-06 16:20 | 32.12374 | -98.01502 | 14974 ft | 391 kts | 28° |
| 2026-05-06 16:21 | 32.15423 | -97.99205 | 14330 ft | 389 kts | 38° |
| 2026-05-06 16:21 | 32.17115 | -97.96736 | 13851 ft | 387 kts | 64° |
| 2026-05-06 16:21 | 32.17849 | -97.93752 | 13404 ft | 375 kts | 90° |
| 2026-05-06 16:21 | 32.17549 | -97.90784 | 12926 ft | 357 kts | 115° |
| 2026-05-06 16:22 | 32.16473 | -97.88256 | 12456 ft | 347 kts | 122° |
| 2026-05-06 16:22 | 32.15876 | -97.85502 | 12190 ft | 348 kts | 98° |
| 2026-05-06 16:22 | 32.15834 | -97.82695 | 12075 ft | 337 kts | 93° |
| 2026-05-06 16:22 | 32.15839 | -97.82393 | 12067 ft | 336 kts | 93° |
| 2026-05-06 16:29 | 32.15897 | -97.80277 | 12026 ft | 332 kts | 90° |
| 2026-05-06 16:30 | 32.16464 | -97.77641 | 11821 ft | 338 kts | 64° |
| 2026-05-06 16:30 | 32.17363 | -97.76120 | 11468 ft | 345 kts | 47° |
| 2026-05-06 16:30 | 32.19729 | -97.73570 | 11176 ft | 342 kts | 34° |
| 2026-05-06 16:30 | 32.21732 | -97.72105 | 11086 ft | 335 kts | 26° |
| 2026-05-06 16:31 | 32.23793 | -97.70845 | 11038 ft | 335 kts | 23° |
| 2026-05-06 16:31 | 32.25916 | -97.69685 | 11023 ft | 337 kts | 21° |
| 2026-05-06 16:31 | 32.28055 | -97.68531 | 11008 ft | 339 kts | 22° |
| 2026-05-06 16:31 | 32.30185 | -97.67335 | 10848 ft | 338 kts | 24° |
| 2026-05-06 16:32 | 32.32289 | -97.66096 | 10552 ft | 337 kts | 25° |
| 2026-05-06 16:32 | 32.34375 | -97.64854 | 10259 ft | 335 kts | 24° |
| 2026-05-06 16:32 | 32.36450 | -97.63629 | 9986 ft | 332 kts | 25° |
| 2026-05-06 16:32 | 32.38486 | -97.62370 | 9656 ft | 330 kts | 32° |
| 2026-05-06 16:33 | 32.40206 | -97.60655 | 9399 ft | 326 kts | 44° |
| 2026-05-06 16:33 | 32.41768 | -97.58747 | 9276 ft | 317 kts | 46° |
| 2026-05-06 16:33 | 32.43284 | -97.56872 | 8993 ft | 314 kts | 45° |
| 2026-05-06 16:34 | 32.46339 | -97.53222 | 8418 ft | 309 kts | 43° |
| 2026-05-06 16:34 | 32.47671 | -97.51249 | 8096 ft | 308 kts | 66° |